GMFF/FEZ METAR and TAF weather

Enter ICAO airport designator
Station Type Date Time Source
GMFF METAR 2022/01/28 00:30 UTC NOAA

GMFF 280030Z 04003KT 020V170 CAVOK 09/M01 Q1021 NOSIG


Station Type Date Time Source
GMFF Decoded METAR 2022/01/28 00:30 UTC NOAA

Fes-Sais, Morocco (GMFF) 33-56N 004-59W 579M
Jan 27, 2022 - 07:30 PM EST / 2022.01.28 0030 UTC
Wind: from the NE (040 degrees) at 3 MPH (3 KT) (direction variable):0
Visibility: greater than 7 mile(s):0
Temperature: 48 F (9 C)
Dew Point: 30 F (-1 C)
Relative Humidity: 49%
Pressure (altimeter): 30.15 in. Hg (1021 hPa)
ob: GMFF 280030Z 04003KT 020V170 CAVOK 09/M01 Q1021 NOSIG
cycle: 0

Station Type Date Time Source
GMFF TAF 2022/01/27 18:39 UTC NOAA

TAF GMFF 271700Z 2718/2824 06008KT 9999 FEW030

Example: see airport list